Time;durP1;ratioP1;P1;durP2;ratioP2;P2;SDS_P1;SDS_P2;PMS_P1;PMS_P2;Temp;Humidity;BMP_temperature;BMP_pressure;BME280_temperature;BME280_humidity;BME280_pressure;Samples;Min_cycle;Max_cycle;Signal;HPM_P1;HPM_P2
2022/07/09 00:02:09;;;;;;;;;;;16.30;99.90;;;;;;5122392;27;19915;-76
2022/07/09 00:04:34;;;;;;;;;;;16.40;99.90;;;;;;5109703;27;19915;-75
2022/07/09 00:07:00;;;;;;;;;;;16.40;99.90;;;;;;5129326;27;19954;-75
2022/07/09 00:09:26;;;;;;;;;;;16.40;99.90;;;;;;5130329;27;19919;-73
2022/07/09 00:11:52;;;;;;;;;;;16.40;99.90;;;;;;5106963;27;20037;-75
2022/07/09 00:14:18;;;;;;;;;;;16.40;99.90;;;;;;5106522;27;19915;-74
2022/07/09 00:16:44;;;;;;;;;;;16.40;99.90;;;;;;5150839;27;19923;-74
2022/07/09 00:19:09;;;;;;;;;;;16.40;99.90;;;;;;5149932;27;19937;-75
2022/07/09 00:21:35;;;;;;;;;;;16.40;99.90;;;;;;5143779;27;19929;-74
2022/07/09 00:24:00;;;;;;;;;;;16.50;99.90;;;;;;5132044;27;20015;-74
2022/07/09 00:26:26;;;;;;;;;;;16.50;99.90;;;;;;5105429;27;19918;-75
2022/07/09 00:28:52;;;;;;;;;;;16.50;99.90;;;;;;5145406;27;20352;-73
2022/07/09 00:31:17;;;;;;;;;;;16.50;99.90;;;;;;5121446;27;19930;-75
2022/07/09 00:33:43;;;;;;;;;;;16.50;99.90;;;;;;5113003;27;19923;-74
2022/07/09 00:36:09;;;;;;;;;;;16.50;99.90;;;;;;5123814;27;20032;-74
2022/07/09 00:38:34;;;;;;;;;;;16.40;99.90;;;;;;5141471;27;19920;-75
2022/07/09 00:41:05;;;;;;;;;;;16.40;99.90;;;;;;5142180;27;19926;-74
2022/07/09 00:43:31;;;;;;;;;;;16.40;99.90;;;;;;5140324;27;20272;-75
2022/07/09 00:45:56;;;;;;;;;;;16.40;99.90;;;;;;5134422;27;19919;-74
2022/07/09 00:48:23;;;;;;;;;;;16.50;99.90;;;;;;5116693;27;19921;-76
2022/07/09 00:50:49;;;;;;;;;;;16.40;99.90;;;;;;5133086;27;19926;-76
2022/07/09 00:53:21;;;;;;;;;;;16.50;99.90;;;;;;5124800;27;19915;-76
2022/07/09 00:55:48;;;;;;;;;;;16.40;99.90;;;;;;5137807;27;19922;-74
2022/07/09 00:58:15;;;;;;;;;;;16.40;99.90;;;;;;5121750;27;20276;-76
2022/07/09 01:00:41;;;;;;;;;;;16.50;99.90;;;;;;5120188;27;19915;-76
2022/07/09 01:03:07;;;;;;;;;;;16.40;99.90;;;;;;5144199;27;20186;-74
2022/07/09 01:05:36;;;;;;;;;;;16.50;99.90;;;;;;5137286;27;19919;-74
2022/07/09 01:08:05;;;;;;;;;;;16.50;99.90;;;;;;5126637;27;20371;-75
2022/07/09 01:10:32;;;;;;;;;;;16.50;99.90;;;;;;5133471;27;19922;-76
2022/07/09 01:12:57;;;;;;;;;;;16.40;99.90;;;;;;5111345;27;19926;-76
2022/07/09 01:15:23;;;;;;;;;;;16.50;99.90;;;;;;5118907;27;19915;-74
2022/07/09 01:17:52;;;;;;;;;;;16.40;99.90;;;;;;5122042;27;19963;-75
2022/07/09 01:20:28;;;;;;;;;;;16.40;99.90;;;;;;5104263;27;20695;-75
2022/07/09 01:22:55;;;;;;;;;;;16.40;99.90;;;;;;5124341;27;19915;-76
2022/07/09 01:25:26;;;;;;;;;;;16.40;99.90;;;;;;5130484;27;20002;-74
2022/07/09 01:27:51;;;;;;;;;;;16.30;99.90;;;;;;5123105;27;19914;-75
2022/07/09 01:30:26;;;;;;;;;;;16.40;99.90;;;;;;5126633;27;19952;-75
2022/07/09 01:32:52;;;;;;;;;;;16.30;99.90;;;;;;5114277;27;19926;-75
2022/07/09 01:35:18;;;;;;;;;;;16.40;99.90;;;;;;5145407;27;19923;-74
2022/07/09 01:37:43;;;;;;;;;;;16.30;99.90;;;;;;5116439;27;19931;-75
2022/07/09 01:40:09;;;;;;;;;;;16.30;99.90;;;;;;5099011;27;19919;-75
2022/07/09 01:42:36;;;;;;;;;;;16.40;99.90;;;;;;5106176;27;19915;-74
2022/07/09 01:45:02;;;;;;;;;;;16.40;99.90;;;;;;5148433;27;20006;-75
2022/07/09 01:47:28;;;;;;;;;;;16.30;99.90;;;;;;5131991;27;20388;-75
2022/07/09 01:49:53;;;;;;;;;;;16.40;99.90;;;;;;5124219;27;19922;-75
2022/07/09 01:52:19;;;;;;;;;;;16.30;99.90;;;;;;5106009;27;20328;-75
2022/07/09 01:54:46;;;;;;;;;;;16.30;99.90;;;;;;5119565;27;20289;-75
2022/07/09 01:57:12;;;;;;;;;;;16.30;99.90;;;;;;5116846;27;19914;-74
2022/07/09 01:59:38;;;;;;;;;;;16.20;99.90;;;;;;5142161;27;20334;-73
2022/07/09 02:02:05;;;;;;;;;;;16.20;99.90;;;;;;5126879;27;19926;-74
2022/07/09 02:04:30;;;;;;;;;;;16.20;99.90;;;;;;5121261;27;19919;-74
2022/07/09 02:06:56;;;;;;;;;;;16.10;99.90;;;;;;5127091;27;19923;-73
2022/07/09 02:09:22;;;;;;;;;;;16.10;99.90;;;;;;5099471;27;19988;-74
2022/07/09 02:11:48;;;;;;;;;;;16.10;99.90;;;;;;5112749;27;20013;-75
2022/07/09 02:14:14;;;;;;;;;;;16.10;99.90;;;;;;5131216;27;19919;-74
2022/07/09 02:16:39;;;;;;;;;;;16.10;99.90;;;;;;5144032;27;19916;-73
2022/07/09 02:19:06;;;;;;;;;;;16.10;99.90;;;;;;5124541;27;20288;-75
2022/07/09 02:21:32;;;;;;;;;;;16.10;99.90;;;;;;5122541;27;19957;-74
2022/07/09 02:23:58;;;;;;;;;;;16.10;99.90;;;;;;5143260;27;19954;-75
2022/07/09 02:26:25;;;;;;;;;;;16.10;99.90;;;;;;5120362;27;19919;-73
2022/07/09 02:28:51;;;;;;;;;;;16.10;99.90;;;;;;5114293;27;19923;-75
2022/07/09 02:31:18;;;;;;;;;;;16.10;99.90;;;;;;5125196;27;20372;-74
2022/07/09 02:33:43;;;;;;;;;;;16.10;99.90;;;;;;5124958;27;20409;-75
2022/07/09 02:36:09;;;;;;;;;;;16.10;99.90;;;;;;5133868;27;19914;-76
2022/07/09 02:38:35;;;;;;;;;;;16.10;99.90;;;;;;5115318;27;19920;-74
2022/07/09 02:41:01;;;;;;;;;;;16.10;99.90;;;;;;5128401;27;19922;-75
2022/07/09 02:43:28;;;;;;;;;;;16.10;99.90;;;;;;5094360;28;19924;-73
2022/07/09 02:45:55;;;;;;;;;;;16.10;99.90;;;;;;5116967;27;19915;-76
2022/07/09 02:48:21;;;;;;;;;;;16.20;99.90;;;;;;5123626;27;20357;-74
2022/07/09 02:50:47;;;;;;;;;;;16.10;99.90;;;;;;5114298;27;19929;-75
2022/07/09 02:53:14;;;;;;;;;;;16.00;99.90;;;;;;5128359;27;19922;-76
2022/07/09 02:55:39;;;;;;;;;;;16.00;99.90;;;;;;5111761;27;19962;-75
2022/07/09 02:58:05;;;;;;;;;;;16.00;99.90;;;;;;5121096;27;20316;-75
2022/07/09 03:00:30;;;;;;;;;;;16.00;99.90;;;;;;5108200;27;19942;-76
2022/07/09 03:02:56;;;;;;;;;;;16.00;99.90;;;;;;5103451;27;19938;-75
2022/07/09 03:05:22;;;;;;;;;;;16.00;99.90;;;;;;5094418;27;19915;-73
2022/07/09 03:07:48;;;;;;;;;;;16.00;99.90;;;;;;5124178;27;20712;-74
2022/07/09 03:10:13;;;;;;;;;;;15.90;99.90;;;;;;5116275;27;20392;-76
2022/07/09 03:12:40;;;;;;;;;;;15.90;99.90;;;;;;5111129;28;19923;-75
2022/07/09 03:15:06;;;;;;;;;;;16.00;99.90;;;;;;5121302;27;19937;-75
2022/07/09 03:17:37;;;;;;;;;;;15.90;99.90;;;;;;5118084;28;19926;-76
2022/07/09 03:20:05;;;;;;;;;;;15.90;99.90;;;;;;5094020;28;20011;-76
2022/07/09 03:22:30;;;;;;;;;;;15.90;99.90;;;;;;5116455;28;19961;-76
2022/07/09 03:24:56;;;;;;;;;;;15.80;99.90;;;;;;5127079;28;19923;-74
2022/07/09 03:27:25;;;;;;;;;;;15.90;99.90;;;;;;5112306;28;19916;-74
2022/07/09 03:29:50;;;;;;;;;;;15.90;99.90;;;;;;5110328;28;19990;-76
2022/07/09 03:32:16;;;;;;;;;;;15.90;99.90;;;;;;5108172;28;19920;-75
2022/07/09 03:34:41;;;;;;;;;;;15.90;99.90;;;;;;5116670;28;20372;-75
2022/07/09 03:37:08;;;;;;;;;;;15.80;99.90;;;;;;5110657;28;19919;-76
2022/07/09 03:39:34;;;;;;;;;;;16.10;99.90;;;;;;5109521;28;19962;-76
2022/07/09 03:42:00;;;;;;;;;;;15.80;99.90;;;;;;5097730;28;19916;-76
2022/07/09 03:44:25;;;;;;;;;;;15.80;99.90;;;;;;5110224;28;19931;-76
2022/07/09 03:46:52;;;;;;;;;;;15.80;99.90;;;;;;5094938;28;19916;-75
2022/07/09 03:49:17;;;;;;;;;;;15.80;99.90;;;;;;5114023;28;19927;-74
2022/07/09 03:51:44;;;;;;;;;;;15.90;99.90;;;;;;5116319;28;19926;-75
2022/07/09 03:54:09;;;;;;;;;;;15.80;99.90;;;;;;5109782;28;19959;-74
2022/07/09 03:56:35;;;;;;;;;;;15.90;99.90;;;;;;5111305;28;19994;-75
2022/07/09 03:59:02;;;;;;;;;;;15.90;99.90;;;;;;5116023;28;19927;-75
2022/07/09 04:01:28;;;;;;;;;;;15.90;99.90;;;;;;5101016;28;19923;-75
2022/07/09 04:03:53;;;;;;;;;;;15.90;99.90;;;;;;5101414;27;20398;-73
2022/07/09 04:06:20;;;;;;;;;;;15.90;99.90;;;;;;5123387;27;19941;-76
2022/07/09 04:08:46;;;;;;;;;;;15.90;99.90;;;;;;5127128;27;19964;-74
2022/07/09 04:11:12;;;;;;;;;;;16.00;99.90;;;;;;5120198;27;20280;-75
2022/07/09 04:13:37;;;;;;;;;;;16.00;99.90;;;;;;5130921;27;19929;-76
2022/07/09 04:16:03;;;;;;;;;;;16.00;99.90;;;;;;5133951;27;19916;-76
2022/07/09 04:18:29;;;;;;;;;;;16.00;99.90;;;;;;5117153;27;20303;-73
2022/07/09 04:20:55;;;;;;;;;;;16.00;99.90;;;;;;5118583;27;19927;-74
2022/07/09 04:23:20;;;;;;;;;;;16.10;99.90;;;;;;5104805;28;20006;-74
2022/07/09 04:25:47;;;;;;;;;;;16.10;99.90;;;;;;5118513;27;20318;-74
2022/07/09 04:28:13;;;;;;;;;;;16.10;99.90;;;;;;5125942;27;20006;-75
2022/07/09 04:30:40;;;;;;;;;;;16.20;99.90;;;;;;5119655;27;20022;-76
2022/07/09 04:33:06;;;;;;;;;;;16.20;99.90;;;;;;5107033;27;19946;-73
2022/07/09 04:35:40;;;;;;;;;;;16.20;99.90;;;;;;5134080;27;19922;-75
2022/07/09 04:38:06;;;;;;;;;;;16.30;99.90;;;;;;5131748;27;19927;-75
2022/07/09 04:40:31;;;;;;;;;;;16.30;99.90;;;;;;5117323;27;19920;-74
2022/07/09 04:42:57;;;;;;;;;;;16.30;99.90;;;;;;5118082;27;19919;-74
2022/07/09 04:45:22;;;;;;;;;;;16.40;99.90;;;;;;5121089;27;20048;-76
2022/07/09 04:47:48;;;;;;;;;;;16.40;99.90;;;;;;5146795;27;19969;-75
2022/07/09 04:50:14;;;;;;;;;;;16.40;99.90;;;;;;5143011;27;19915;-76
2022/07/09 04:52:40;;;;;;;;;;;16.40;99.90;;;;;;5099680;27;19927;-74
2022/07/09 04:55:05;;;;;;;;;;;16.50;99.90;;;;;;5115993;27;20384;-74
2022/07/09 04:57:37;;;;;;;;;;;16.50;99.90;;;;;;5121118;27;19938;-77
2022/07/09 05:00:03;;;;;;;;;;;16.60;99.90;;;;;;5136933;27;19919;-75
2022/07/09 05:02:28;;;;;;;;;;;16.70;99.90;;;;;;5116213;27;20377;-76
2022/07/09 05:04:54;;;;;;;;;;;16.70;99.90;;;;;;5125564;27;20006;-75
2022/07/09 05:07:19;;;;;;;;;;;16.80;99.90;;;;;;5129134;27;19915;-74
2022/07/09 05:09:45;;;;;;;;;;;16.80;99.90;;;;;;5129063;27;20268;-75
2022/07/09 05:12:11;;;;;;;;;;;16.80;99.90;;;;;;5140353;27;19922;-74
2022/07/09 05:14:37;;;;;;;;;;;16.80;99.90;;;;;;5096231;27;19919;-75
2022/07/09 05:17:03;;;;;;;;;;;16.90;99.90;;;;;;5144488;27;19922;-75
2022/07/09 05:19:29;;;;;;;;;;;16.90;99.90;;;;;;5126997;27;19923;-76
2022/07/09 05:21:54;;;;;;;;;;;16.90;99.90;;;;;;5127470;27;20257;-74
2022/07/09 05:24:20;;;;;;;;;;;16.90;99.90;;;;;;5119796;27;19915;-75
2022/07/09 05:26:45;;;;;;;;;;;17.00;99.90;;;;;;5143037;27;19915;-74
2022/07/09 05:29:11;;;;;;;;;;;17.00;99.90;;;;;;5148387;27;19919;-76
2022/07/09 05:31:36;;;;;;;;;;;17.00;99.90;;;;;;5127409;27;20261;-77
2022/07/09 05:34:02;;;;;;;;;;;17.10;99.90;;;;;;5123154;27;19919;-75
2022/07/09 05:36:28;;;;;;;;;;;17.10;99.90;;;;;;5123607;27;20276;-75
2022/07/09 05:38:55;;;;;;;;;;;17.10;99.90;;;;;;5135567;27;19920;-75
2022/07/09 05:41:22;;;;;;;;;;;17.10;99.90;;;;;;5137061;27;20369;-76
2022/07/09 05:43:47;;;;;;;;;;;17.20;99.90;;;;;;5141671;27;20284;-76
2022/07/09 05:46:13;;;;;;;;;;;17.20;99.90;;;;;;5136953;27;20363;-75
2022/07/09 05:48:39;;;;;;;;;;;17.20;99.90;;;;;;5126580;27;19963;-75
2022/07/09 05:51:05;;;;;;;;;;;17.20;99.90;;;;;;5131763;27;19919;-75
2022/07/09 05:53:32;;;;;;;;;;;17.30;99.90;;;;;;5129115;27;20390;-76
2022/07/09 05:55:59;;;;;;;;;;;17.30;99.90;;;;;;5112934;27;19919;-75
2022/07/09 05:58:24;;;;;;;;;;;17.30;99.90;;;;;;5134648;27;20375;-75
2022/07/09 06:00:51;;;;;;;;;;;17.30;99.90;;;;;;5119164;27;19915;-74
2022/07/09 06:03:17;;;;;;;;;;;17.30;99.90;;;;;;5116640;27;19922;-74
2022/07/09 06:05:43;;;;;;;;;;;17.40;99.90;;;;;;5122334;27;19919;-76
2022/07/09 06:08:09;;;;;;;;;;;17.50;99.90;;;;;;5126602;27;19915;-76
2022/07/09 06:10:34;;;;;;;;;;;17.50;99.90;;;;;;5102445;27;19915;-76
2022/07/09 06:13:00;;;;;;;;;;;17.60;99.90;;;;;;5146895;27;19915;-77
2022/07/09 06:15:26;;;;;;;;;;;17.60;99.90;;;;;;5117071;27;19920;-75
2022/07/09 06:17:51;;;;;;;;;;;17.60;99.90;;;;;;5129753;27;20280;-76
2022/07/09 06:20:17;;;;;;;;;;;17.70;99.90;;;;;;5120446;27;19962;-75
2022/07/09 06:22:42;;;;;;;;;;;17.80;99.90;;;;;;5121770;27;20348;-75
2022/07/09 06:25:08;;;;;;;;;;;17.80;99.90;;;;;;5131061;27;19915;-76
2022/07/09 06:27:34;;;;;;;;;;;17.80;99.90;;;;;;5129738;27;20286;-76
2022/07/09 06:30:00;;;;;;;;;;;17.80;99.90;;;;;;5109252;27;19915;-77
2022/07/09 06:32:26;;;;;;;;;;;17.80;99.90;;;;;;5121083;27;19915;-75
2022/07/09 06:34:51;;;;;;;;;;;17.90;99.90;;;;;;5119331;27;20006;-76
2022/07/09 06:37:18;;;;;;;;;;;17.90;99.90;;;;;;5122710;27;20005;-76
2022/07/09 06:39:48;;;;;;;;;;;17.90;99.90;;;;;;5134671;27;20021;-75
2022/07/09 06:42:14;;;;;;;;;;;17.90;99.90;;;;;;5124977;27;19919;-75
2022/07/09 06:44:40;;;;;;;;;;;17.90;99.90;;;;;;5118288;27;19923;-76
2022/07/09 06:47:06;;;;;;;;;;;17.90;99.90;;;;;;5103995;27;19922;-77
2022/07/09 06:49:31;;;;;;;;;;;17.80;99.90;;;;;;5123241;27;20010;-76
2022/07/09 06:51:57;;;;;;;;;;;17.80;99.90;;;;;;5114574;27;19967;-74
2022/07/09 06:54:23;;;;;;;;;;;17.80;99.90;;;;;;5139543;27;19919;-77
2022/07/09 06:56:48;;;;;;;;;;;17.90;99.90;;;;;;5097600;27;20269;-75
2022/07/09 06:59:14;;;;;;;;;;;18.00;99.90;;;;;;5136965;27;19919;-74
2022/07/09 07:01:46;;;;;;;;;;;18.10;99.90;;;;;;5121282;27;19917;-75
2022/07/09 07:04:12;;;;;;;;;;;18.30;99.90;;;;;;5126569;27;19957;-76
2022/07/09 07:06:38;;;;;;;;;;;18.30;99.90;;;;;;5124597;27;19946;-75
2022/07/09 07:09:04;;;;;;;;;;;18.30;99.90;;;;;;5114293;27;19915;-74
2022/07/09 07:11:31;;;;;;;;;;;18.30;99.90;;;;;;5145797;27;19915;-74
2022/07/09 07:13:57;;;;;;;;;;;18.40;99.90;;;;;;5118825;27;19957;-72
2022/07/09 07:16:22;;;;;;;;;;;18.50;99.90;;;;;;5121182;27;20000;-74
2022/07/09 07:18:48;;;;;;;;;;;18.60;99.90;;;;;;5121942;27;19923;-77
2022/07/09 07:21:14;;;;;;;;;;;18.80;99.90;;;;;;5120749;27;19915;-77
2022/07/09 07:23:39;;;;;;;;;;;18.80;99.90;;;;;;5145744;27;19949;-74
2022/07/09 07:26:05;;;;;;;;;;;18.90;99.90;;;;;;5145555;27;20055;-75
2022/07/09 07:28:30;;;;;;;;;;;18.90;99.90;;;;;;5143919;27;19927;-72
2022/07/09 07:30:56;;;;;;;;;;;19.00;99.90;;;;;;5115160;27;20433;-76
2022/07/09 07:33:21;;;;;;;;;;;19.00;99.90;;;;;;5140065;27;20284;-75
2022/07/09 07:35:54;;;;;;;;;;;19.00;99.90;;;;;;5100983;27;20378;-73
2022/07/09 07:38:20;;;;;;;;;;;19.00;99.90;;;;;;5101936;28;19972;-76
2022/07/09 07:40:46;;;;;;;;;;;19.00;99.90;;;;;;5128057;27;19919;-74
2022/07/09 07:43:12;;;;;;;;;;;19.00;99.90;;;;;;5124513;27;19977;-73
2022/07/09 07:45:38;;;;;;;;;;;19.20;99.90;;;;;;5124870;27;19922;-73
2022/07/09 07:48:08;;;;;;;;;;;19.20;99.90;;;;;;5147205;27;20006;-74
2022/07/09 07:50:38;;;;;;;;;;;19.30;99.90;;;;;;5124593;27;19962;-74
2022/07/09 07:53:05;;;;;;;;;;;19.20;99.90;;;;;;5124018;27;19915;-74
2022/07/09 07:55:30;;;;;;;;;;;19.20;99.90;;;;;;5121499;27;19919;-74
2022/07/09 07:57:56;;;;;;;;;;;19.20;99.90;;;;;;5120358;27;20279;-73
2022/07/09 08:00:22;;;;;;;;;;;19.30;99.90;;;;;;5126461;27;20190;-74
2022/07/09 08:02:47;;;;;;;;;;;19.50;99.90;;;;;;5124763;27;19968;-72
2022/07/09 08:05:14;;;;;;;;;;;19.70;99.90;;;;;;5124728;27;19919;-74
2022/07/09 08:07:40;;;;;;;;;;;19.70;99.90;;;;;;5129377;27;19973;-73
2022/07/09 08:10:07;;;;;;;;;;;19.70;99.90;;;;;;5143108;27;19977;-74
2022/07/09 08:12:33;;;;;;;;;;;19.60;99.90;;;;;;5111125;27;20318;-74
2022/07/09 08:14:59;;;;;;;;;;;19.50;99.90;;;;;;5126570;27;19915;-73
2022/07/09 08:17:24;;;;;;;;;;;19.60;99.90;;;;;;5123341;27;19916;-75
2022/07/09 08:19:50;;;;;;;;;;;19.70;99.90;;;;;;5122003;27;19967;-75
2022/07/09 08:22:21;;;;;;;;;;;19.90;99.90;;;;;;5116941;27;20010;-73
2022/07/09 08:24:47;;;;;;;;;;;19.90;99.90;;;;;;5122832;27;20006;-73
2022/07/09 08:27:13;;;;;;;;;;;20.10;99.90;;;;;;5122552;27;19915;-74
2022/07/09 08:29:38;;;;;;;;;;;20.10;99.90;;;;;;5128665;27;19915;-74
2022/07/09 08:32:05;;;;;;;;;;;20.00;99.90;;;;;;5122529;27;19915;-74
2022/07/09 08:34:30;;;;;;;;;;;19.80;99.90;;;;;;5128888;27;19926;-74
2022/07/09 08:36:56;;;;;;;;;;;19.70;99.90;;;;;;5134862;27;19919;-74
2022/07/09 08:39:22;;;;;;;;;;;19.70;99.90;;;;;;5147665;27;20279;-74
2022/07/09 08:41:49;;;;;;;;;;;19.60;99.90;;;;;;5128371;27;19926;-73
2022/07/09 08:44:15;;;;;;;;;;;19.50;99.90;;;;;;5119984;27;20420;-75
2022/07/09 08:46:41;;;;;;;;;;;19.40;99.90;;;;;;5138082;27;20613;-73
2022/07/09 08:49:07;;;;;;;;;;;19.40;99.90;;;;;;5125009;27;19997;-74
2022/07/09 08:51:34;;;;;;;;;;;19.60;99.90;;;;;;5141433;27;19977;-74
2022/07/09 08:54:06;;;;;;;;;;;20.10;99.90;;;;;;5110162;27;19919;-73
2022/07/09 08:56:33;;;;;;;;;;;20.30;99.90;;;;;;5131604;27;19938;-73
2022/07/09 08:58:59;;;;;;;;;;;20.30;99.90;;;;;;5131023;27;20010;-74
2022/07/09 09:01:25;;;;;;;;;;;20.10;99.90;;;;;;5125407;27;20006;-74
2022/07/09 09:03:51;;;;;;;;;;;19.70;99.90;;;;;;5127675;27;19915;-74
2022/07/09 09:06:20;;;;;;;;;;;19.50;99.90;;;;;;5121430;27;19962;-74
2022/07/09 09:08:46;;;;;;;;;;;19.40;99.90;;;;;;5126198;27;19915;-74
2022/07/09 09:11:15;;;;;;;;;;;19.60;99.90;;;;;;5135289;27;19915;-75
2022/07/09 09:13:42;;;;;;;;;;;19.80;99.90;;;;;;5123360;27;19921;-74
2022/07/09 09:16:08;;;;;;;;;;;19.90;99.90;;;;;;5138342;27;20272;-75
2022/07/09 09:18:34;;;;;;;;;;;20.00;99.90;;;;;;5139480;27;20015;-75
2022/07/09 09:21:04;;;;;;;;;;;20.00;99.90;;;;;;5122158;27;19941;-74
2022/07/09 09:23:54;;;;;;;;;;;20.10;99.90;;;;;;5123703;27;19930;-74
2022/07/09 09:26:22;;;;;;;;;;;20.20;99.90;;;;;;5129191;27;19914;-74
2022/07/09 09:28:59;;;;;;;;;;;20.30;99.90;;;;;;5145107;27;20376;-76
2022/07/09 09:31:33;;;;;;;;;;;20.40;99.90;;;;;;5122708;27;19960;-75
2022/07/09 09:34:08;;;;;;;;;;;20.60;99.90;;;;;;5132827;27;19968;-75
2022/07/09 09:36:36;;;;;;;;;;;20.70;99.90;;;;;;5127372;27;20254;-75
2022/07/09 09:39:18;;;;;;;;;;;20.80;99.90;;;;;;5126770;27;20286;-74
2022/07/09 09:41:45;;;;;;;;;;;20.90;99.90;;;;;;5114758;27;19916;-75
2022/07/09 09:44:13;;;;;;;;;;;21.00;99.90;;;;;;5124934;27;19919;-76
2022/07/09 09:46:46;;;;;;;;;;;20.90;99.90;;;;;;5122193;27;20593;-75
2022/07/09 09:49:14;;;;;;;;;;;20.80;99.90;;;;;;5116288;27;20395;-74
2022/07/09 09:51:43;;;;;;;;;;;20.80;99.90;;;;;;5119490;27;19915;-75
2022/07/09 09:54:10;;;;;;;;;;;20.90;99.90;;;;;;5129430;27;19922;-74
2022/07/09 09:56:35;;;;;;;;;;;21.10;99.90;;;;;;5129637;27;19915;-75
2022/07/09 09:59:04;;;;;;;;;;;21.20;99.90;;;;;;5128108;27;19963;-74
2022/07/09 10:01:30;;;;;;;;;;;21.30;99.90;;;;;;5130056;27;19958;-76
2022/07/09 10:04:00;;;;;;;;;;;21.20;99.90;;;;;;5117538;27;20053;-76
2022/07/09 10:06:26;;;;;;;;;;;21.10;99.90;;;;;;5111567;27;19922;-75
2022/07/09 10:08:52;;;;;;;;;;;21.10;99.90;;;;;;5132060;27;20403;-76
2022/07/09 10:11:18;;;;;;;;;;;21.10;99.90;;;;;;5114488;27;19951;-75
2022/07/09 10:13:51;;;;;;;;;;;21.00;99.90;;;;;;5129061;27;19967;-75
2022/07/09 10:16:16;;;;;;;;;;;20.50;99.90;;;;;;5130884;27;20304;-74
2022/07/09 10:18:52;;;;;;;;;;;19.80;99.90;;;;;;5124412;27;19922;-75
2022/07/09 10:21:17;;;;;;;;;;;19.50;99.90;;;;;;5124663;27;19919;-75
2022/07/09 10:23:50;;;;;;;;;;;19.10;99.90;;;;;;5128015;27;19916;-76
2022/07/09 10:26:16;;;;;;;;;;;18.90;99.90;;;;;;5110353;28;19919;-76
2022/07/09 10:28:42;;;;;;;;;;;18.70;99.90;;;;;;5111591;27;19922;-75
2022/07/09 10:31:07;;;;;;;;;;;18.60;99.90;;;;;;5126504;27;20391;-75
2022/07/09 10:33:34;;;;;;;;;;;18.60;99.90;;;;;;5107469;27;20292;-74
2022/07/09 10:36:16;;;;;;;;;;;18.60;99.90;;;;;;5131760;27;19915;-74
2022/07/09 10:38:51;;;;;;;;;;;18.70;99.90;;;;;;5117040;27;19925;-75
2022/07/09 10:41:23;;;;;;;;;;;18.80;99.90;;;;;;5118278;27;19927;-75
2022/07/09 10:43:52;;;;;;;;;;;18.90;99.90;;;;;;5107790;28;20266;-75
2022/07/09 10:46:18;;;;;;;;;;;19.00;99.90;;;;;;5111289;27;19919;-75
2022/07/09 10:48:44;;;;;;;;;;;19.10;99.90;;;;;;5126220;27;19992;-75
2022/07/09 10:51:19;;;;;;;;;;;19.20;99.90;;;;;;5118237;27;20262;-76
2022/07/09 10:53:45;;;;;;;;;;;19.10;99.90;;;;;;5116514;27;20020;-75
2022/07/09 10:56:11;;;;;;;;;;;19.20;99.90;;;;;;5118928;27;19959;-76
2022/07/09 10:58:37;;;;;;;;;;;19.30;99.90;;;;;;5115647;27;19919;-75
2022/07/09 11:01:04;;;;;;;;;;;19.50;99.90;;;;;;5115036;27;20360;-75
2022/07/09 11:03:30;;;;;;;;;;;19.50;99.90;;;;;;5121138;27;19920;-75
2022/07/09 11:05:57;;;;;;;;;;;19.70;99.90;;;;;;5126759;27;20054;-76
2022/07/09 11:08:23;;;;;;;;;;;20.00;99.90;;;;;;5116877;27;20264;-76
2022/07/09 11:10:49;;;;;;;;;;;20.10;99.90;;;;;;5099815;28;19943;-76
2022/07/09 11:13:25;;;;;;;;;;;20.20;99.90;;;;;;5121691;27;19954;-76
2022/07/09 11:16:00;;;;;;;;;;;20.50;99.90;;;;;;5124085;27;19915;-76
2022/07/09 11:18:26;;;;;;;;;;;20.50;99.90;;;;;;5111401;28;20331;-75
2022/07/09 11:20:52;;;;;;;;;;;20.30;99.90;;;;;;5123661;28;19933;-76
2022/07/09 11:23:21;;;;;;;;;;;20.20;99.90;;;;;;5113669;28;20333;-76
2022/07/09 11:25:46;;;;;;;;;;;20.10;99.90;;;;;;5111988;28;19916;-76
2022/07/09 11:28:22;;;;;;;;;;;20.00;99.90;;;;;;5126615;28;19922;-75
2022/07/09 11:31:02;;;;;;;;;;;19.90;99.90;;;;;;5123773;28;19967;-76
2022/07/09 11:34:10;;;;;;;;;;;20.00;99.90;;;;;;5127392;28;19923;-75
2022/07/09 11:36:16;;;;;;;;;;;20.00;99.90;;;;;;5117615;28;19919;-75
2022/07/09 11:38:48;;;;;;;;;;;19.90;99.90;;;;;;5105848;28;19919;-77
2022/07/09 11:41:24;;;;;;;;;;;19.90;99.90;;;;;;5120963;28;19926;-76
2022/07/09 11:43:50;;;;;;;;;;;20.20;99.90;;;;;;5116635;28;19919;-75
2022/07/09 11:46:19;;;;;;;;;;;20.40;99.90;;;;;;5118653;28;19924;-75
2022/07/09 11:48:51;;;;;;;;;;;20.60;99.90;;;;;;5112619;28;19916;-76
2022/07/09 11:51:33;;;;;;;;;;;20.70;99.90;;;;;;5124833;28;20477;-75
2022/07/09 11:54:02;;;;;;;;;;;20.60;99.90;;;;;;5116851;28;19921;-75
2022/07/09 11:56:39;;;;;;;;;;;20.40;99.90;;;;;;5118719;28;20003;-75
2022/07/09 11:59:04;;;;;;;;;;;20.40;99.90;;;;;;5119109;28;19984;-74
2022/07/09 12:01:33;;;;;;;;;;;20.40;99.90;;;;;;5117145;28;20420;-74
2022/07/09 12:04:05;;;;;;;;;;;20.40;99.90;;;;;;5123107;28;20511;-75
2022/07/09 12:06:32;;;;;;;;;;;20.20;99.90;;;;;;5104382;28;19915;-75
2022/07/09 12:09:00;;;;;;;;;;;20.20;99.90;;;;;;5120531;28;20291;-75
2022/07/09 12:11:30;;;;;;;;;;;20.30;99.90;;;;;;5115537;28;19927;-75
2022/07/09 12:13:57;;;;;;;;;;;20.40;99.90;;;;;;5117414;28;19958;-76
2022/07/09 12:16:22;;;;;;;;;;;20.40;99.90;;;;;;5116231;28;19915;-74
2022/07/09 12:18:56;;;;;;;;;;;20.40;99.90;;;;;;5116207;28;19984;-75
2022/07/09 12:21:22;;;;;;;;;;;20.50;99.90;;;;;;5115384;28;19920;-75
2022/07/09 12:23:47;;;;;;;;;;;20.70;99.90;;;;;;5124325;28;19927;-74
2022/07/09 12:26:14;;;;;;;;;;;20.80;99.90;;;;;;5118677;27;19976;-75
2022/07/09 12:28:39;;;;;;;;;;;20.90;99.90;;;;;;5109865;27;19919;-74
2022/07/09 12:31:05;;;;;;;;;;;21.10;99.90;;;;;;5109079;28;20029;-76
2022/07/09 12:33:34;;;;;;;;;;;21.20;99.90;;;;;;5114797;28;19915;-75
2022/07/09 12:35:59;;;;;;;;;;;21.20;99.90;;;;;;5127640;27;19944;-76
2022/07/09 12:38:25;;;;;;;;;;;20.90;99.90;;;;;;5125466;27;19965;-74
2022/07/09 12:40:51;;;;;;;;;;;20.60;99.90;;;;;;5109486;27;19926;-76
2022/07/09 12:43:17;;;;;;;;;;;20.60;99.90;;;;;;5125121;27;20367;-76
2022/07/09 12:45:44;;;;;;;;;;;20.80;99.90;;;;;;5127432;27;19916;-74
2022/07/09 12:48:09;;;;;;;;;;;21.00;99.90;;;;;;5137568;27;20337;-75
2022/07/09 12:50:35;;;;;;;;;;;21.30;99.90;;;;;;5141951;27;20184;-75
2022/07/09 12:53:02;;;;;;;;;;;21.40;99.90;;;;;;5109884;27;19938;-75
2022/07/09 12:55:29;;;;;;;;;;;21.40;99.90;;;;;;5132627;27;19954;-75
2022/07/09 12:57:55;;;;;;;;;;;21.50;99.90;;;;;;5120052;27;19915;-75
2022/07/09 13:00:22;;;;;;;;;;;21.50;99.90;;;;;;5125282;27;19920;-75
2022/07/09 13:02:47;;;;;;;;;;;21.40;99.90;;;;;;5111181;27;19920;-75
2022/07/09 13:05:14;;;;;;;;;;;21.40;99.90;;;;;;5120134;27;20472;-76
2022/07/09 13:07:40;;;;;;;;;;;21.20;99.90;;;;;;5121475;27;19915;-75
2022/07/09 13:10:06;;;;;;;;;;;21.10;99.90;;;;;;5127187;27;19915;-74
2022/07/09 13:12:33;;;;;;;;;;;21.00;99.90;;;;;;5123822;27;20424;-75
2022/07/09 13:14:59;;;;;;;;;;;21.00;99.90;;;;;;5124973;27;20299;-75
2022/07/09 13:17:25;;;;;;;;;;;21.00;99.90;;;;;;5125064;27;19998;-75
2022/07/09 13:19:52;;;;;;;;;;;21.00;99.90;;;;;;5139177;27;20014;-75
2022/07/09 13:22:17;;;;;;;;;;;21.00;99.90;;;;;;5125034;27;19923;-74
2022/07/09 13:24:43;;;;;;;;;;;21.10;99.90;;;;;;5141904;27;20384;-74
2022/07/09 13:27:12;;;;;;;;;;;21.10;99.90;;;;;;5136662;27;20357;-73
2022/07/09 13:29:39;;;;;;;;;;;21.40;99.90;;;;;;5141269;27;19919;-75
2022/07/09 13:32:05;;;;;;;;;;;21.50;99.90;;;;;;5128187;27;19946;-75
2022/07/09 13:34:31;;;;;;;;;;;21.60;99.90;;;;;;5130859;27;19962;-75
2022/07/09 13:36:56;;;;;;;;;;;21.70;99.90;;;;;;5123586;27;19972;-76
2022/07/09 13:39:22;;;;;;;;;;;21.40;99.90;;;;;;5120562;27;19923;-75
2022/07/09 13:41:48;;;;;;;;;;;21.30;99.90;;;;;;5122785;27;19969;-75
2022/07/09 13:44:18;;;;;;;;;;;21.40;99.90;;;;;;5148040;27;20667;-75
2022/07/09 13:46:43;;;;;;;;;;;21.50;99.90;;;;;;5145180;27;19940;-75
2022/07/09 13:49:09;;;;;;;;;;;21.50;99.90;;;;;;5124980;27;19922;-74
2022/07/09 13:51:35;;;;;;;;;;;21.20;99.90;;;;;;5126058;27;19915;-75
2022/07/09 13:54:01;;;;;;;;;;;20.80;99.90;;;;;;5121978;27;19950;-74
2022/07/09 13:56:26;;;;;;;;;;;20.30;99.90;;;;;;5123700;27;19969;-74
2022/07/09 13:59:05;;;;;;;;;;;20.20;99.90;;;;;;5123985;27;19981;-74
2022/07/09 14:01:31;;;;;;;;;;;19.90;99.90;;;;;;5124868;27;20331;-75
2022/07/09 14:03:58;;;;;;;;;;;19.80;99.90;;;;;;5128366;27;19990;-74
2022/07/09 14:06:24;;;;;;;;;;;19.60;99.90;;;;;;5110639;27;19954;-74
2022/07/09 14:08:50;;;;;;;;;;;19.40;99.90;;;;;;5123807;27;20013;-74
2022/07/09 14:11:16;;;;;;;;;;;;;;;;;;5128047;27;20009;-75
2022/07/09 14:13:43;;;;;;;;;;;;;;;;;;5103255;27;19915;-74
2022/07/09 14:16:12;;;;;;;;;;;;;;;;;;5139913;27;20356;-74
2022/07/09 14:18:38;;;;;;;;;;;;;;;;;;5145740;27;19926;-74